createdAt,value
2022-12-09T00:01:21.046Z,89.67
2022-12-09T00:03:49.048Z,89.46
2022-12-09T00:06:25.618Z,89.65
2022-12-09T00:08:53.699Z,89.52
2022-12-09T00:11:21.991Z,89.56
2022-12-09T00:13:54.376Z,89.24
2022-12-09T00:16:23.092Z,89.44
2022-12-09T00:18:51.538Z,89.27
2022-12-09T00:21:32.373Z,89.26
2022-12-09T00:24:03.953Z,89.39
2022-12-09T00:26:31.598Z,89.56
2022-12-09T00:29:00.047Z,89.46
2022-12-09T00:31:32.587Z,89.23
2022-12-09T00:34:06.249Z,89.30
2022-12-09T00:36:33.554Z,89.35
2022-12-09T00:39:02.165Z,89.50
2022-12-09T00:41:30.331Z,89.51
2022-12-09T00:43:58.345Z,89.47
2022-12-09T00:46:25.507Z,89.28
2022-12-09T00:48:52.658Z,89.31
2022-12-09T00:51:22.691Z,89.50
2022-12-09T00:53:54.911Z,89.69
2022-12-09T00:56:24.892Z,89.56
2022-12-09T00:58:52.343Z,89.52
2022-12-09T01:01:19.338Z,89.60
2022-12-09T01:03:46.609Z,89.66
2022-12-09T01:06:20.280Z,89.77
2022-12-09T01:08:47.764Z,89.75
2022-12-09T01:11:33.304Z,90.06
2022-12-09T01:14:02.444Z,89.69
2022-12-09T01:16:35.039Z,89.62
2022-12-09T01:19:07.409Z,89.89
2022-12-09T01:21:36.399Z,89.92
2022-12-09T01:24:10.966Z,89.47
2022-12-09T01:26:39.275Z,89.63
2022-12-09T01:29:06.389Z,89.73
2022-12-09T01:31:33.688Z,89.60
2022-12-09T01:34:01.050Z,89.61
2022-12-09T01:36:29.949Z,89.40
2022-12-09T01:38:59.529Z,89.55
2022-12-09T01:41:27.484Z,89.52
2022-12-09T01:44:18.779Z,89.41
2022-12-09T01:46:47.569Z,89.52
2022-12-09T01:49:26.056Z,89.73
2022-12-09T01:52:10.976Z,89.53
2022-12-09T01:54:40.341Z,89.82
2022-12-09T01:57:08.416Z,89.49
2022-12-09T01:59:36.547Z,89.45
2022-12-09T02:02:05.076Z,89.51
2022-12-09T02:04:39.845Z,89.33
2022-12-09T02:07:10.671Z,89.71
2022-12-09T02:09:40.112Z,89.53
2022-12-09T02:12:43.815Z,89.48
2022-12-09T02:15:21.523Z,89.66
2022-12-09T02:18:04.643Z,89.34
2022-12-09T02:20:48.419Z,89.46
2022-12-09T02:23:51.714Z,89.71
2022-12-09T02:26:51.877Z,89.79
2022-12-09T02:29:49.554Z,89.60
2022-12-09T02:32:16.487Z,89.21
2022-12-09T02:35:00.894Z,89.11
2022-12-09T02:37:42.446Z,89.11
2022-12-09T02:40:25.188Z,89.15
2022-12-09T02:42:53.445Z,89.01
2022-12-09T02:45:23.065Z,89.02
2022-12-09T02:47:53.372Z,89.10
2022-12-09T02:50:27.829Z,88.87
2022-12-09T02:52:56.991Z,88.91
2022-12-09T02:55:24.334Z,89.36
2022-12-09T02:57:57.726Z,89.43
2022-12-09T03:00:25.037Z,89.22
2022-12-09T03:03:05.596Z,89.45
2022-12-09T03:06:01.013Z,89.55
2022-12-09T03:09:01.749Z,89.65
2022-12-09T03:11:32.244Z,89.39
2022-12-09T03:14:13.172Z,89.08
2022-12-09T03:16:52.342Z,89.21
2022-12-09T03:19:29.070Z,89.41
2022-12-09T03:22:04.152Z,89.30
2022-12-09T03:24:54.336Z,89.25
2022-12-09T03:27:29.177Z,89.04
2022-12-09T03:29:58.641Z,88.78
2022-12-09T03:32:28.471Z,89.06
2022-12-09T03:35:05.407Z,88.87
2022-12-09T03:37:33.694Z,88.95
2022-12-09T03:40:01.450Z,88.90
2022-12-09T03:42:38.399Z,89.24
2022-12-09T03:45:11.649Z,88.90
2022-12-09T03:47:39.038Z,88.66
2022-12-09T03:50:08.006Z,88.51
2022-12-09T03:52:45.915Z,88.43
2022-12-09T03:55:44.013Z,88.12
2022-12-09T03:58:13.751Z,88.32
2022-12-09T04:00:41.053Z,88.08
2022-12-09T04:03:09.037Z,88.21
2022-12-09T04:05:36.397Z,88.20
2022-12-09T04:08:03.537Z,88.04
2022-12-09T04:10:30.574Z,88.07
2022-12-09T04:12:57.793Z,87.95
2022-12-09T04:15:25.191Z,88.17
2022-12-09T04:17:52.277Z,87.96
2022-12-09T04:20:19.507Z,88.09
2022-12-09T04:22:46.461Z,87.54
2022-12-09T04:25:13.798Z,87.94
2022-12-09T04:27:41.037Z,87.80
2022-12-09T04:30:09.388Z,87.99
2022-12-09T04:32:37.150Z,88.01
2022-12-09T04:35:04.698Z,87.55
2022-12-09T04:37:32.727Z,87.83
2022-12-09T04:39:59.755Z,87.52
2022-12-09T04:42:29.807Z,87.48
2022-12-09T04:44:56.795Z,87.84
2022-12-09T04:47:24.410Z,87.83
2022-12-09T04:49:51.757Z,87.89
2022-12-09T04:52:19.355Z,87.88
2022-12-09T04:54:46.331Z,87.58
2022-12-09T04:57:13.731Z,87.29
2022-12-09T04:59:40.778Z,87.49
2022-12-09T05:02:07.909Z,87.62
2022-12-09T05:04:35.314Z,87.56
2022-12-09T05:07:02.603Z,87.57
2022-12-09T05:09:30.356Z,87.61
2022-12-09T05:11:58.295Z,87.89
2022-12-09T05:14:25.848Z,88.05
2022-12-09T05:16:53.105Z,88.50
2022-12-09T05:19:20.434Z,88.22
2022-12-09T05:21:48.106Z,88.24
2022-12-09T05:24:15.499Z,88.21
2022-12-09T05:26:42.881Z,88.47
2022-12-09T05:29:09.987Z,88.71
2022-12-09T05:31:37.140Z,88.62
2022-12-09T05:34:04.659Z,88.67
2022-12-09T05:36:32.351Z,88.38
2022-12-09T05:38:59.820Z,88.75
2022-12-09T05:41:27.319Z,88.67
2022-12-09T05:43:54.820Z,88.79
2022-12-09T05:46:22.620Z,88.22
2022-12-09T05:48:49.963Z,88.28
2022-12-09T05:51:27.346Z,88.22
2022-12-09T05:53:55.982Z,88.34
2022-12-09T05:56:25.400Z,88.45
2022-12-09T05:58:54.158Z,88.58
2022-12-09T06:01:23.635Z,88.32
2022-12-09T06:03:52.402Z,88.18
2022-12-09T06:06:23.015Z,87.99
2022-12-09T06:08:54.894Z,88.00
2022-12-09T06:11:22.927Z,87.59
2022-12-09T06:13:51.441Z,87.80
2022-12-09T06:16:21.954Z,87.81
2022-12-09T06:18:50.404Z,87.93
2022-12-09T06:21:19.984Z,87.70
2022-12-09T06:23:47.640Z,87.79
2022-12-09T06:26:21.511Z,87.53
2022-12-09T06:28:48.835Z,87.51
2022-12-09T06:31:16.746Z,87.35
2022-12-09T06:34:00.291Z,87.38
2022-12-09T06:36:31.187Z,87.29
2022-12-09T06:39:07.922Z,86.79
2022-12-09T06:41:37.394Z,86.90
2022-12-09T06:44:04.781Z,86.92
2022-12-09T06:46:32.053Z,86.95
2022-12-09T06:48:59.427Z,86.65
2022-12-09T06:51:26.966Z,86.60
2022-12-09T06:53:54.696Z,86.33
2022-12-09T06:56:23.443Z,86.20
2022-12-09T06:58:51.326Z,86.11
2022-12-09T07:01:25.433Z,86.02
2022-12-09T07:03:56.659Z,85.45
2022-12-09T07:06:30.122Z,85.12
2022-12-09T07:09:02.052Z,84.97
2022-12-09T07:11:30.156Z,84.52
2022-12-09T07:13:57.573Z,84.29
2022-12-09T07:16:25.704Z,84.05
2022-12-09T07:18:53.594Z,83.91
2022-12-09T07:21:22.776Z,83.68
2022-12-09T07:23:50.541Z,83.71
2022-12-09T07:26:18.755Z,83.19
2022-12-09T07:28:48.143Z,83.28
2022-12-09T07:31:25.710Z,83.05
2022-12-09T07:33:56.399Z,82.69
2022-12-09T07:36:26.632Z,82.00
2022-12-09T07:39:11.465Z,80.52
2022-12-09T07:41:38.720Z,78.36
2022-12-09T07:44:06.250Z,76.48
2022-12-09T07:46:34.098Z,74.44
2022-12-09T07:49:04.590Z,72.87
2022-12-09T07:51:33.398Z,71.15
2022-12-09T07:54:00.998Z,69.12
2022-12-09T07:56:29.295Z,67.69
2022-12-09T07:58:57.414Z,65.88
2022-12-09T08:01:30.197Z,65.16
2022-12-09T08:03:58.324Z,65.82
2022-12-09T08:06:28.640Z,66.21
2022-12-09T08:09:02.150Z,66.09
2022-12-09T08:11:31.898Z,66.70
2022-12-09T08:14:07.267Z,67.35
2022-12-09T08:16:38.422Z,68.16
2022-12-09T08:19:06.087Z,68.53
2022-12-09T08:21:34.416Z,69.11
2022-12-09T08:24:06.040Z,69.38
2022-12-09T08:26:35.205Z,69.32
2022-12-09T08:29:06.661Z,69.51
2022-12-09T08:31:40.373Z,69.59
2022-12-09T08:34:08.982Z,69.98
2022-12-09T08:36:37.148Z,70.24
2022-12-09T08:39:05.405Z,70.16
2022-12-09T08:41:36.529Z,70.16
2022-12-09T08:44:14.680Z,70.54
2022-12-09T08:46:50.139Z,70.60
2022-12-09T08:49:22.113Z,70.63
2022-12-09T08:51:51.709Z,70.66
2022-12-09T08:54:19.876Z,70.82
2022-12-09T08:56:55.142Z,71.05
2022-12-09T08:59:23.783Z,71.12
2022-12-09T09:01:51.636Z,70.97
2022-12-09T09:04:21.845Z,70.95
2022-12-09T09:06:51.629Z,71.41
2022-12-09T09:09:20.622Z,71.72
2022-12-09T09:11:48.880Z,71.79
2022-12-09T09:14:16.522Z,71.87
2022-12-09T09:16:45.698Z,72.02
2022-12-09T09:19:20.999Z,72.06
2022-12-09T09:21:49.145Z,72.58
2022-12-09T09:24:20.719Z,72.35
2022-12-09T09:26:51.116Z,72.22
2022-12-09T09:29:21.292Z,72.17
2022-12-09T09:31:49.825Z,72.08
2022-12-09T09:34:19.145Z,71.92
2022-12-09T09:36:47.007Z,72.17
2022-12-09T09:39:14.590Z,72.40
2022-12-09T09:42:06.198Z,72.26
2022-12-09T09:44:38.052Z,72.50
2022-12-09T09:48:08.135Z,72.53
2022-12-09T09:50:57.073Z,72.39
2022-12-09T09:53:33.000Z,72.56
2022-12-09T09:56:21.225Z,72.75
2022-12-09T09:59:28.608Z,72.47
2022-12-09T10:02:38.746Z,72.40
2022-12-09T10:05:30.712Z,72.29
2022-12-09T10:08:27.003Z,72.59
2022-12-09T10:11:09.133Z,72.54
2022-12-09T10:14:06.174Z,72.81
2022-12-09T10:17:12.586Z,72.49
2022-12-09T10:19:54.579Z,72.35
2022-12-09T10:22:27.184Z,72.52
2022-12-09T10:24:59.230Z,72.45
2022-12-09T10:27:53.971Z,72.13
2022-12-09T10:30:22.453Z,71.88
2022-12-09T10:32:50.196Z,71.66
2022-12-09T10:35:24.733Z,72.05
2022-12-09T10:37:54.379Z,71.99
2022-12-09T10:40:36.194Z,70.64
2022-12-09T10:43:37.560Z,70.87
2022-12-09T10:46:18.865Z,70.85
2022-12-09T10:48:46.902Z,70.58
2022-12-09T10:51:28.961Z,70.29
2022-12-09T10:54:11.666Z,69.91
2022-12-09T10:57:28.247Z,69.83
2022-12-09T11:00:19.843Z,68.76
2022-12-09T11:02:55.881Z,67.46
2022-12-09T11:05:32.296Z,67.75
2022-12-09T11:08:00.739Z,67.98
2022-12-09T11:10:30.706Z,68.17
2022-12-09T11:13:05.503Z,67.84
2022-12-09T11:15:45.073Z,67.50
2022-12-09T11:18:37.432Z,67.57
2022-12-09T11:21:33.441Z,67.46
2022-12-09T11:24:03.639Z,65.90
2022-12-09T11:26:38.423Z,64.80
2022-12-09T11:29:19.438Z,64.94
2022-12-09T11:31:47.400Z,64.74
2022-12-09T11:34:23.354Z,64.29
2022-12-09T11:36:54.524Z,64.21
2022-12-09T11:39:35.354Z,63.45
2022-12-09T11:42:18.893Z,63.47
2022-12-09T11:45:25.708Z,61.31
2022-12-09T11:50:51.647Z,61.39
2022-12-09T11:53:30.928Z,59.94
2022-12-09T11:56:04.417Z,59.34
2022-12-09T11:58:43.694Z,59.64
2022-12-09T12:01:35.412Z,59.69
2022-12-09T12:04:10.785Z,58.41
2022-12-09T12:06:56.779Z,59.13
2022-12-09T12:09:53.807Z,59.16
2022-12-09T12:12:55.482Z,59.33
2022-12-09T12:15:35.673Z,59.01
2022-12-09T12:18:08.515Z,59.06
2022-12-09T12:21:03.463Z,58.10
2022-12-09T12:23:44.369Z,58.76
2022-12-09T12:26:25.139Z,59.30
2022-12-09T12:28:58.241Z,59.05
2022-12-09T12:31:59.803Z,58.89
2022-12-09T12:35:10.770Z,58.91
2022-12-09T12:38:23.181Z,59.37
2022-12-09T12:41:16.008Z,59.58
2022-12-09T12:44:43.904Z,59.00
2022-12-09T12:47:44.651Z,59.42
2022-12-09T12:50:48.027Z,59.54
2022-12-09T12:53:26.604Z,59.41
2022-12-09T12:56:09.626Z,59.94
2022-12-09T12:59:14.701Z,60.12
2022-12-09T13:02:02.304Z,60.53
2022-12-09T13:04:57.579Z,61.13
2022-12-09T13:07:51.117Z,60.87
2022-12-09T13:10:36.502Z,61.83
2022-12-09T13:13:13.106Z,63.27
2022-12-09T13:15:46.785Z,63.50
2022-12-09T13:18:27.117Z,63.76
2022-12-09T13:21:01.195Z,62.99
2022-12-09T13:24:13.601Z,63.58
2022-12-09T13:27:01.312Z,63.66
2022-12-09T13:30:01.891Z,64.58
2022-12-09T13:33:08.769Z,65.48
2022-12-09T13:36:00.687Z,66.14
2022-12-09T13:38:42.355Z,66.54
2022-12-09T13:41:58.972Z,67.14
2022-12-09T13:44:35.751Z,67.50
2022-12-09T13:47:36.308Z,67.96
2022-12-09T13:50:21.633Z,68.31
2022-12-09T13:52:56.582Z,68.98
2022-12-09T13:55:32.859Z,69.34
2022-12-09T13:59:10.547Z,69.33
2022-12-09T14:02:02.023Z,69.37
2022-12-09T14:04:37.359Z,69.93
2022-12-09T14:07:47.219Z,70.08
2022-12-09T14:11:19.314Z,70.55
2022-12-09T14:13:46.349Z,70.68
2022-12-09T14:16:28.761Z,70.81
2022-12-09T14:18:57.116Z,71.72
2022-12-09T14:21:31.242Z,71.85
2022-12-09T14:24:11.421Z,72.37
2022-12-09T14:27:08.765Z,72.82
2022-12-09T14:30:23.279Z,72.21
2022-12-09T14:32:50.122Z,72.95
2022-12-09T14:35:46.398Z,73.04
2022-12-09T14:39:07.733Z,73.79
2022-12-09T14:42:04.138Z,74.16
2022-12-09T14:44:55.195Z,72.90
2022-12-09T14:47:32.694Z,73.90
2022-12-09T14:50:15.245Z,74.11
2022-12-09T14:52:54.114Z,74.93
2022-12-09T14:55:24.937Z,75.60
2022-12-09T14:57:54.632Z,76.20
2022-12-09T15:00:41.771Z,76.29
2022-12-09T15:03:35.530Z,76.84
2022-12-09T15:06:17.380Z,77.26
2022-12-09T15:08:45.112Z,77.55
2022-12-09T15:11:23.099Z,77.50
2022-12-09T15:13:53.947Z,77.54
2022-12-09T15:16:25.364Z,78.60
2022-12-09T15:18:54.267Z,79.08
2022-12-09T15:21:30.993Z,78.67
2022-12-09T15:24:00.512Z,78.18
2022-12-09T15:26:32.349Z,78.70
2022-12-09T15:29:01.252Z,78.74
2022-12-09T15:31:32.086Z,78.93
2022-12-09T15:34:08.427Z,80.07
2022-12-09T15:36:43.522Z,79.98
2022-12-09T15:39:23.752Z,80.48
2022-12-09T15:42:08.010Z,79.59
2022-12-09T15:45:01.187Z,79.47
2022-12-09T15:47:50.733Z,79.11
2022-12-09T15:50:36.824Z,79.36
2022-12-09T15:53:26.837Z,80.97
2022-12-09T15:56:07.436Z,80.96
2022-12-09T15:58:42.722Z,80.77
2022-12-09T16:01:10.282Z,80.77
2022-12-09T16:03:38.825Z,80.78
2022-12-09T16:06:09.227Z,80.30
2022-12-09T16:08:44.464Z,81.37
2022-12-09T16:11:12.316Z,81.12
2022-12-09T16:13:59.758Z,81.09
2022-12-09T16:16:40.259Z,81.13
2022-12-09T16:19:38.787Z,80.85
2022-12-09T16:22:19.086Z,80.75
2022-12-09T16:25:16.252Z,81.26
2022-12-09T16:27:51.532Z,81.59
2022-12-09T16:30:20.939Z,82.56
2022-12-09T16:32:56.194Z,82.35
2022-12-09T16:35:42.836Z,83.14
2022-12-09T16:38:09.701Z,82.97
2022-12-09T16:40:45.528Z,83.15
2022-12-09T16:43:21.206Z,83.41
2022-12-09T16:45:53.639Z,84.86
2022-12-09T16:48:23.584Z,85.17
2022-12-09T16:51:14.308Z,84.64
2022-12-09T16:53:53.711Z,85.39
2022-12-09T16:56:27.794Z,86.04
2022-12-09T16:58:55.574Z,85.55
2022-12-09T17:01:35.233Z,85.83
2022-12-09T17:04:26.870Z,85.68
2022-12-09T17:06:54.423Z,85.28
2022-12-09T17:09:21.477Z,85.50
2022-12-09T17:11:49.363Z,85.08
2022-12-09T17:14:17.359Z,85.47
2022-12-09T17:16:44.924Z,85.33
2022-12-09T17:19:12.097Z,85.19
2022-12-09T17:21:39.045Z,84.97
2022-12-09T17:24:06.584Z,84.92
2022-12-09T17:26:33.515Z,84.37
2022-12-09T17:29:02.079Z,84.30
2022-12-09T17:31:29.804Z,84.72
2022-12-09T17:33:57.358Z,84.74
2022-12-09T17:36:24.311Z,84.76
2022-12-09T17:38:51.441Z,84.32
2022-12-09T17:41:23.382Z,85.29
2022-12-09T17:43:50.547Z,86.25
2022-12-09T17:46:17.932Z,86.11
2022-12-09T17:48:44.943Z,86.45
2022-12-09T17:51:16.481Z,86.76
2022-12-09T17:53:44.354Z,86.19
2022-12-09T17:56:15.712Z,86.76
2022-12-09T17:58:43.644Z,86.84
2022-12-09T18:01:20.932Z,87.53
2022-12-09T18:03:57.266Z,88.36
2022-12-09T18:06:27.876Z,88.52
2022-12-09T18:08:54.886Z,89.01
2022-12-09T18:11:22.559Z,88.91
2022-12-09T18:13:50.786Z,89.41
2022-12-09T18:16:18.756Z,88.90
2022-12-09T18:18:46.229Z,87.92
2022-12-09T18:21:16.038Z,87.53
2022-12-09T18:23:43.965Z,88.20
2022-12-09T18:26:14.260Z,89.00
2022-12-09T18:28:41.513Z,89.53
2022-12-09T18:31:12.086Z,88.71
2022-12-09T18:33:39.738Z,90.02
2022-12-09T18:36:13.087Z,90.53
2022-12-09T18:38:41.096Z,91.28
2022-12-09T18:41:13.727Z,90.64
2022-12-09T18:43:44.145Z,91.35
2022-12-09T18:46:25.720Z,91.36
2022-12-09T18:49:08.592Z,90.90
2022-12-09T18:51:36.597Z,92.51
2022-12-09T18:54:04.828Z,92.88
2022-12-09T18:56:33.027Z,93.05
2022-12-09T18:59:08.689Z,93.33
2022-12-09T19:01:40.954Z,93.13
2022-12-09T19:04:22.864Z,92.88
2022-12-09T19:06:53.076Z,92.13
2022-12-09T19:09:24.615Z,92.12
2022-12-09T19:11:53.348Z,92.57
2022-12-09T19:14:22.927Z,97.16
2022-12-09T19:16:51.987Z,100.00
2022-12-09T19:19:22.773Z,94.80
2022-12-09T19:21:50.679Z,90.98
2022-12-09T19:24:24.641Z,91.17
2022-12-09T19:26:53.945Z,92.25
2022-12-09T19:29:22.149Z,91.55
2022-12-09T19:31:51.674Z,90.96
2022-12-09T19:34:27.903Z,91.51
2022-12-09T19:36:58.380Z,90.33
2022-12-09T19:39:34.017Z,90.22
2022-12-09T19:42:01.823Z,90.58
2022-12-09T19:44:59.640Z,90.37
2022-12-09T19:47:15.769Z,90.12
2022-12-09T19:49:44.457Z,90.48
2022-12-09T19:52:12.815Z,89.81
2022-12-09T19:54:40.144Z,89.91
2022-12-09T19:57:07.140Z,89.45
2022-12-09T19:59:35.545Z,88.98
2022-12-09T20:02:02.646Z,88.94
2022-12-09T20:07:19.949Z,88.23
2022-12-09T20:09:47.545Z,88.23
2022-12-09T20:12:14.635Z,87.99
2022-12-09T20:14:43.195Z,89.22
2022-12-09T20:17:10.869Z,89.09
2022-12-09T20:19:37.924Z,89.64
2022-12-09T20:22:07.114Z,88.84
2022-12-09T20:24:34.239Z,88.48
2022-12-09T20:27:01.367Z,88.69
2022-12-09T20:29:32.460Z,88.15
2022-12-09T20:32:02.742Z,88.98
2022-12-09T20:34:29.721Z,89.17
2022-12-09T20:36:56.923Z,89.32
2022-12-09T20:39:24.010Z,89.50
2022-12-09T20:41:51.061Z,88.71
2022-12-09T20:44:20.060Z,88.87
2022-12-09T20:46:50.499Z,89.52
2022-12-09T20:49:21.977Z,89.61
2022-12-09T20:51:49.263Z,90.13
2022-12-09T20:54:16.366Z,90.13
2022-12-09T20:56:43.550Z,89.60
2022-12-09T20:59:13.685Z,89.71
2022-12-09T21:01:41.665Z,89.08
2022-12-09T21:04:08.851Z,89.03
2022-12-09T21:06:38.776Z,88.96
2022-12-09T21:09:14.825Z,89.25
2022-12-09T21:11:42.048Z,89.23
2022-12-09T21:14:10.372Z,88.82
2022-12-09T21:16:42.966Z,88.21
2022-12-09T21:19:14.062Z,88.72
2022-12-09T21:21:46.715Z,89.33
2022-12-09T21:24:16.198Z,89.22
2022-12-09T21:26:43.575Z,88.71
2022-12-09T21:29:12.656Z,89.00
2022-12-09T21:31:41.756Z,88.96
2022-12-09T21:34:10.878Z,88.69
2022-12-09T21:36:41.478Z,89.37
2022-12-09T21:39:10.601Z,89.88
2022-12-09T21:41:37.944Z,89.45
2022-12-09T21:44:06.747Z,88.61
2022-12-09T21:46:37.681Z,89.49
2022-12-09T21:49:06.905Z,89.13
2022-12-09T21:51:35.343Z,89.24
2022-12-09T21:54:03.264Z,89.68
2022-12-09T21:56:33.481Z,89.69
2022-12-09T21:59:01.643Z,89.55
2022-12-09T22:01:36.059Z,90.51
2022-12-09T22:04:07.525Z,91.01
2022-12-09T22:06:34.885Z,90.76
2022-12-09T22:09:02.870Z,91.44
2022-12-09T22:11:35.800Z,91.59
2022-12-09T22:14:03.635Z,91.06
2022-12-09T22:16:38.641Z,91.21
2022-12-09T22:19:08.431Z,91.03
2022-12-09T22:21:36.850Z,91.70
2022-12-09T22:24:06.958Z,91.84
2022-12-09T22:26:34.401Z,91.26
2022-12-09T22:29:04.584Z,91.55
2022-12-09T22:31:36.794Z,91.48
2022-12-09T22:34:10.050Z,91.54
2022-12-09T22:36:37.304Z,90.96
2022-12-09T22:39:06.950Z,90.98
2022-12-09T22:41:35.033Z,91.04
2022-12-09T22:44:02.541Z,91.39
2022-12-09T22:46:32.847Z,91.06
2022-12-09T22:49:06.503Z,90.81
2022-12-09T22:51:36.551Z,90.97
2022-12-09T22:54:08.231Z,90.93
2022-12-09T22:56:40.966Z,91.23
2022-12-09T22:59:08.922Z,91.90
2022-12-09T23:01:37.503Z,92.04
2022-12-09T23:04:06.901Z,92.87
2022-12-09T23:06:37.277Z,93.03
2022-12-09T23:09:07.069Z,92.85
2022-12-09T23:11:34.553Z,92.73
2022-12-09T23:14:01.761Z,92.84
2022-12-09T23:16:29.276Z,93.77
2022-12-09T23:18:58.614Z,93.34
2022-12-09T23:21:35.496Z,92.99
2022-12-09T23:24:07.138Z,92.01
2022-12-09T23:26:37.558Z,92.49
2022-12-09T23:29:08.531Z,92.35
2022-12-09T23:31:37.647Z,92.48
2022-12-09T23:34:06.578Z,92.98
2022-12-09T23:36:40.344Z,92.97
2022-12-09T23:39:14.361Z,92.97
2022-12-09T23:41:43.250Z,92.77
2022-12-09T23:44:13.797Z,93.09
2022-12-09T23:46:41.158Z,93.04
2022-12-09T23:49:08.763Z,92.34
2022-12-09T23:51:39.171Z,91.92
2022-12-09T23:54:08.805Z,92.00
2022-12-09T23:56:40.389Z,93.00
2022-12-09T23:59:11.154Z,92.68
